sensor_id;sensor_type;location;lat;lon;timestamp;P1;durP1;ratioP1;P2;durP2;ratioP2
23232;SDS011;11785;49.500;8.288;2023-03-09T00:01:31;1.83;;;0.77;;
23232;SDS011;11785;49.500;8.288;2023-03-09T00:03:57;1.13;;;0.55;;
23232;SDS011;11785;49.500;8.288;2023-03-09T00:06:23;1.60;;;0.70;;
23232;SDS011;11785;49.500;8.288;2023-03-09T00:08:49;0.75;;;0.70;;
23232;SDS011;11785;49.500;8.288;2023-03-09T00:11:15;1.40;;;0.50;;
23232;SDS011;11785;49.500;8.288;2023-03-09T00:13:42;2.22;;;0.63;;
23232;SDS011;11785;49.500;8.288;2023-03-09T00:16:13;0.85;;;0.68;;
23232;SDS011;11785;49.500;8.288;2023-03-09T00:18:47;2.00;;;0.70;;
23232;SDS011;11785;49.500;8.288;2023-03-09T00:21:13;2.33;;;0.75;;
23232;SDS011;11785;49.500;8.288;2023-03-09T00:26:39;2.60;;;0.77;;
23232;SDS011;11785;49.500;8.288;2023-03-09T00:29:07;2.13;;;0.77;;
23232;SDS011;11785;49.500;8.288;2023-03-09T00:31:35;0.88;;;0.60;;
23232;SDS011;11785;49.500;8.288;2023-03-09T00:34:01;5.05;;;0.73;;
23232;SDS011;11785;49.500;8.288;2023-03-09T00:36:26;1.40;;;0.70;;
23232;SDS011;11785;49.500;8.288;2023-03-09T00:38:52;0.50;;;0.50;;
23232;SDS011;11785;49.500;8.288;2023-03-09T00:41:20;0.90;;;0.60;;
23232;SDS011;11785;49.500;8.288;2023-03-09T00:43:46;2.03;;;0.50;;
23232;SDS011;11785;49.500;8.288;2023-03-09T00:46:12;0.68;;;0.55;;
23232;SDS011;11785;49.500;8.288;2023-03-09T00:48:38;3.00;;;0.70;;
23232;SDS011;11785;49.500;8.288;2023-03-09T00:51:04;3.45;;;0.55;;
23232;SDS011;11785;49.500;8.288;2023-03-09T00:53:31;2.33;;;0.80;;
23232;SDS011;11785;49.500;8.288;2023-03-09T00:55:59;0.57;;;0.57;;
23232;SDS011;11785;49.500;8.288;2023-03-09T00:58:27;0.52;;;0.52;;
23232;SDS011;11785;49.500;8.288;2023-03-09T01:00:52;0.70;;;0.63;;
23232;SDS011;11785;49.500;8.288;2023-03-09T01:03:18;1.00;;;0.60;;
23232;SDS011;11785;49.500;8.288;2023-03-09T01:05:43;2.63;;;0.55;;
23232;SDS011;11785;49.500;8.288;2023-03-09T01:08:09;1.23;;;0.60;;
23232;SDS011;11785;49.500;8.288;2023-03-09T01:10:37;0.75;;;0.50;;
23232;SDS011;11785;49.500;8.288;2023-03-09T01:13:03;0.73;;;0.60;;
23232;SDS011;11785;49.500;8.288;2023-03-09T01:15:28;3.50;;;0.60;;
23232;SDS011;11785;49.500;8.288;2023-03-09T01:17:54;1.83;;;0.50;;
23232;SDS011;11785;49.500;8.288;2023-03-09T01:20:19;0.75;;;0.55;;
23232;SDS011;11785;49.500;8.288;2023-03-09T01:22:45;1.58;;;0.40;;
23232;SDS011;11785;49.500;8.288;2023-03-09T01:25:10;0.60;;;0.60;;
23232;SDS011;11785;49.500;8.288;2023-03-09T01:27:36;2.38;;;0.47;;
23232;SDS011;11785;49.500;8.288;2023-03-09T01:30:02;3.47;;;0.45;;
23232;SDS011;11785;49.500;8.288;2023-03-09T01:32:28;2.00;;;0.60;;
23232;SDS011;11785;49.500;8.288;2023-03-09T01:34:54;1.75;;;0.73;;
23232;SDS011;11785;49.500;8.288;2023-03-09T01:37:20;0.80;;;0.50;;
23232;SDS011;11785;49.500;8.288;2023-03-09T01:39:45;0.95;;;0.68;;
23232;SDS011;11785;49.500;8.288;2023-03-09T01:42:11;1.10;;;0.50;;
23232;SDS011;11785;49.500;8.288;2023-03-09T01:44:36;1.15;;;0.60;;
23232;SDS011;11785;49.500;8.288;2023-03-09T01:47:02;0.88;;;0.70;;
23232;SDS011;11785;49.500;8.288;2023-03-09T01:49:36;5.13;;;0.80;;
23232;SDS011;11785;49.500;8.288;2023-03-09T02:02:34;0.95;;;0.80;;
23232;SDS011;11785;49.500;8.288;2023-03-09T02:05:03;1.83;;;0.65;;
23232;SDS011;11785;49.500;8.288;2023-03-09T02:07:33;1.05;;;0.65;;
23232;SDS011;11785;49.500;8.288;2023-03-09T02:10:03;2.47;;;0.77;;
23232;SDS011;11785;49.500;8.288;2023-03-09T02:12:35;1.10;;;0.75;;
23232;SDS011;11785;49.500;8.288;2023-03-09T02:15:01;2.53;;;1.02;;
23232;SDS011;11785;49.500;8.288;2023-03-09T02:17:28;4.32;;;1.02;;
23232;SDS011;11785;49.500;8.288;2023-03-09T02:22:36;1.75;;;0.80;;
23232;SDS011;11785;49.500;8.288;2023-03-09T02:28:13;1.30;;;0.68;;
23232;SDS011;11785;49.500;8.288;2023-03-09T02:30:39;0.93;;;0.60;;
23232;SDS011;11785;49.500;8.288;2023-03-09T02:33:11;1.50;;;0.60;;
23232;SDS011;11785;49.500;8.288;2023-03-09T02:35:50;1.75;;;0.80;;
23232;SDS011;11785;49.500;8.288;2023-03-09T02:38:19;1.75;;;0.80;;
23232;SDS011;11785;49.500;8.288;2023-03-09T02:40:45;0.75;;;0.73;;
23232;SDS011;11785;49.500;8.288;2023-03-09T02:43:11;1.13;;;0.80;;
23232;SDS011;11785;49.500;8.288;2023-03-09T02:45:38;0.80;;;0.60;;
23232;SDS011;11785;49.500;8.288;2023-03-09T02:48:04;1.52;;;1.30;;
23232;SDS011;11785;49.500;8.288;2023-03-09T02:50:30;1.45;;;0.68;;
23232;SDS011;11785;49.500;8.288;2023-03-09T02:52:55;1.52;;;0.80;;
23232;SDS011;11785;49.500;8.288;2023-03-09T02:55:21;0.50;;;0.50;;
23232;SDS011;11785;49.500;8.288;2023-03-09T02:57:46;0.82;;;0.60;;
23232;SDS011;11785;49.500;8.288;2023-03-09T03:00:13;1.48;;;0.80;;
23232;SDS011;11785;49.500;8.288;2023-03-09T03:02:39;1.25;;;0.65;;
23232;SDS011;11785;49.500;8.288;2023-03-09T03:05:05;0.70;;;0.70;;
23232;SDS011;11785;49.500;8.288;2023-03-09T03:07:32;1.50;;;0.60;;
23232;SDS011;11785;49.500;8.288;2023-03-09T03:09:58;0.85;;;0.77;;
23232;SDS011;11785;49.500;8.288;2023-03-09T03:12:24;1.63;;;0.60;;
23232;SDS011;11785;49.500;8.288;2023-03-09T03:14:49;1.60;;;0.90;;
23232;SDS011;11785;49.500;8.288;2023-03-09T03:17:15;3.40;;;1.00;;
23232;SDS011;11785;49.500;8.288;2023-03-09T03:19:41;0.70;;;0.70;;
23232;SDS011;11785;49.500;8.288;2023-03-09T03:22:07;1.20;;;0.80;;
23232;SDS011;11785;49.500;8.288;2023-03-09T03:24:36;1.83;;;0.95;;
23232;SDS011;11785;49.500;8.288;2023-03-09T03:27:03;2.28;;;1.50;;
23232;SDS011;11785;49.500;8.288;2023-03-09T03:29:28;1.52;;;1.42;;
23232;SDS011;11785;49.500;8.288;2023-03-09T03:31:54;3.22;;;1.40;;
23232;SDS011;11785;49.500;8.288;2023-03-09T03:34:19;3.75;;;1.70;;
23232;SDS011;11785;49.500;8.288;2023-03-09T03:36:45;3.15;;;1.50;;
23232;SDS011;11785;49.500;8.288;2023-03-09T03:41:37;3.15;;;1.77;;
23232;SDS011;11785;49.500;8.288;2023-03-09T03:44:02;1.70;;;1.60;;
23232;SDS011;11785;49.500;8.288;2023-03-09T03:46:28;2.30;;;1.55;;
23232;SDS011;11785;49.500;8.288;2023-03-09T03:48:55;1.77;;;1.52;;
23232;SDS011;11785;49.500;8.288;2023-03-09T03:51:21;3.05;;;1.73;;
23232;SDS011;11785;49.500;8.288;2023-03-09T03:53:46;4.03;;;1.42;;
23232;SDS011;11785;49.500;8.288;2023-03-09T03:56:12;2.47;;;1.58;;
23232;SDS011;11785;49.500;8.288;2023-03-09T03:58:37;2.08;;;1.40;;
23232;SDS011;11785;49.500;8.288;2023-03-09T04:01:03;3.28;;;1.50;;
23232;SDS011;11785;49.500;8.288;2023-03-09T04:03:29;2.63;;;1.60;;
23232;SDS011;11785;49.500;8.288;2023-03-09T04:05:54;3.78;;;1.60;;
23232;SDS011;11785;49.500;8.288;2023-03-09T04:08:20;3.88;;;1.50;;
23232;SDS011;11785;49.500;8.288;2023-03-09T04:10:45;5.22;;;1.88;;
23232;SDS011;11785;49.500;8.288;2023-03-09T04:13:11;2.97;;;1.73;;
23232;SDS011;11785;49.500;8.288;2023-03-09T04:15:36;3.70;;;1.70;;
23232;SDS011;11785;49.500;8.288;2023-03-09T04:18:02;4.40;;;1.73;;
23232;SDS011;11785;49.500;8.288;2023-03-09T04:20:28;3.28;;;1.92;;
23232;SDS011;11785;49.500;8.288;2023-03-09T04:22:53;4.55;;;1.80;;
23232;SDS011;11785;49.500;8.288;2023-03-09T04:25:19;3.10;;;1.48;;
23232;SDS011;11785;49.500;8.288;2023-03-09T04:27:45;3.13;;;1.75;;
23232;SDS011;11785;49.500;8.288;2023-03-09T04:30:10;2.97;;;1.42;;
23232;SDS011;11785;49.500;8.288;2023-03-09T04:32:36;2.97;;;1.90;;
23232;SDS011;11785;49.500;8.288;2023-03-09T04:35:02;4.70;;;1.85;;
23232;SDS011;11785;49.500;8.288;2023-03-09T04:37:29;4.65;;;1.88;;
23232;SDS011;11785;49.500;8.288;2023-03-09T04:39:54;9.90;;;2.53;;
23232;SDS011;11785;49.500;8.288;2023-03-09T04:42:20;3.45;;;2.15;;
23232;SDS011;11785;49.500;8.288;2023-03-09T04:44:45;6.97;;;1.77;;
23232;SDS011;11785;49.500;8.288;2023-03-09T04:47:11;7.00;;;2.10;;
23232;SDS011;11785;49.500;8.288;2023-03-09T04:49:38;5.28;;;2.05;;
23232;SDS011;11785;49.500;8.288;2023-03-09T04:52:04;6.40;;;2.42;;
23232;SDS011;11785;49.500;8.288;2023-03-09T04:54:30;5.43;;;2.67;;
23232;SDS011;11785;49.500;8.288;2023-03-09T04:56:56;7.35;;;2.22;;
23232;SDS011;11785;49.500;8.288;2023-03-09T04:59:21;11.93;;;2.17;;
23232;SDS011;11785;49.500;8.288;2023-03-09T05:01:47;8.40;;;2.38;;
23232;SDS011;11785;49.500;8.288;2023-03-09T05:04:12;5.85;;;2.22;;
23232;SDS011;11785;49.500;8.288;2023-03-09T05:06:38;6.65;;;2.25;;
23232;SDS011;11785;49.500;8.288;2023-03-09T05:09:04;6.10;;;1.95;;
23232;SDS011;11785;49.500;8.288;2023-03-09T05:11:30;8.27;;;2.22;;
23232;SDS011;11785;49.500;8.288;2023-03-09T05:13:56;13.18;;;2.67;;
23232;SDS011;11785;49.500;8.288;2023-03-09T05:16:22;11.95;;;3.13;;
23232;SDS011;11785;49.500;8.288;2023-03-09T05:18:48;6.90;;;1.80;;
23232;SDS011;11785;49.500;8.288;2023-03-09T05:21:14;8.18;;;2.25;;
23232;SDS011;11785;49.500;8.288;2023-03-09T05:23:40;6.40;;;1.92;;
23232;SDS011;11785;49.500;8.288;2023-03-09T05:26:06;7.85;;;2.10;;
23232;SDS011;11785;49.500;8.288;2023-03-09T05:28:35;6.68;;;2.05;;
23232;SDS011;11785;49.500;8.288;2023-03-09T05:31:04;10.20;;;2.03;;
23232;SDS011;11785;49.500;8.288;2023-03-09T05:33:40;8.77;;;1.73;;
23232;SDS011;11785;49.500;8.288;2023-03-09T05:36:19;8.63;;;2.30;;
23232;SDS011;11785;49.500;8.288;2023-03-09T05:38:49;10.90;;;2.13;;
23232;SDS011;11785;49.500;8.288;2023-03-09T05:41:16;11.77;;;2.67;;
23232;SDS011;11785;49.500;8.288;2023-03-09T05:43:42;14.30;;;2.45;;
23232;SDS011;11785;49.500;8.288;2023-03-09T05:46:08;6.40;;;1.65;;
23232;SDS011;11785;49.500;8.288;2023-03-09T05:48:35;11.95;;;2.47;;
23232;SDS011;11785;49.500;8.288;2023-03-09T05:51:01;7.75;;;1.98;;
23232;SDS011;11785;49.500;8.288;2023-03-09T05:53:27;10.20;;;1.85;;
23232;SDS011;11785;49.500;8.288;2023-03-09T05:55:53;8.70;;;2.20;;
23232;SDS011;11785;49.500;8.288;2023-03-09T05:58:19;7.75;;;1.65;;
23232;SDS011;11785;49.500;8.288;2023-03-09T06:00:44;9.35;;;2.00;;
23232;SDS011;11785;49.500;8.288;2023-03-09T06:03:11;8.25;;;2.00;;
23232;SDS011;11785;49.500;8.288;2023-03-09T06:05:36;11.95;;;1.90;;
23232;SDS011;11785;49.500;8.288;2023-03-09T06:08:02;10.50;;;2.03;;
23232;SDS011;11785;49.500;8.288;2023-03-09T06:10:27;8.10;;;1.60;;
23232;SDS011;11785;49.500;8.288;2023-03-09T06:12:53;9.15;;;2.20;;
23232;SDS011;11785;49.500;8.288;2023-03-09T06:15:18;5.60;;;1.98;;
23232;SDS011;11785;49.500;8.288;2023-03-09T06:17:44;13.63;;;2.97;;
23232;SDS011;11785;49.500;8.288;2023-03-09T06:20:10;10.32;;;2.08;;
23232;SDS011;11785;49.500;8.288;2023-03-09T06:22:35;5.47;;;1.60;;
23232;SDS011;11785;49.500;8.288;2023-03-09T06:25:01;8.38;;;1.50;;
23232;SDS011;11785;49.500;8.288;2023-03-09T06:27:27;9.10;;;1.70;;
23232;SDS011;11785;49.500;8.288;2023-03-09T06:29:53;8.38;;;1.60;;
23232;SDS011;11785;49.500;8.288;2023-03-09T06:32:19;8.68;;;1.55;;
23232;SDS011;11785;49.500;8.288;2023-03-09T06:34:45;6.55;;;1.30;;
23232;SDS011;11785;49.500;8.288;2023-03-09T06:37:10;13.57;;;1.80;;
23232;SDS011;11785;49.500;8.288;2023-03-09T06:39:36;5.85;;;1.50;;
23232;SDS011;11785;49.500;8.288;2023-03-09T06:42:02;9.40;;;1.67;;
23232;SDS011;11785;49.500;8.288;2023-03-09T06:44:27;10.02;;;1.90;;
23232;SDS011;11785;49.500;8.288;2023-03-09T06:46:53;4.85;;;1.55;;
23232;SDS011;11785;49.500;8.288;2023-03-09T06:49:18;11.95;;;1.90;;
23232;SDS011;11785;49.500;8.288;2023-03-09T06:51:44;6.63;;;1.52;;
23232;SDS011;11785;49.500;8.288;2023-03-09T06:54:10;6.90;;;1.25;;
23232;SDS011;11785;49.500;8.288;2023-03-09T06:56:35;3.72;;;1.33;;
23232;SDS011;11785;49.500;8.288;2023-03-09T06:59:01;4.53;;;1.40;;
23232;SDS011;11785;49.500;8.288;2023-03-09T07:01:26;6.53;;;1.50;;
23232;SDS011;11785;49.500;8.288;2023-03-09T07:03:52;3.72;;;1.10;;
23232;SDS011;11785;49.500;8.288;2023-03-09T07:06:17;5.25;;;1.25;;
23232;SDS011;11785;49.500;8.288;2023-03-09T07:08:43;6.65;;;0.75;;
23232;SDS011;11785;49.500;8.288;2023-03-09T07:11:08;2.30;;;0.90;;
23232;SDS011;11785;49.500;8.288;2023-03-09T07:13:34;2.80;;;1.00;;
23232;SDS011;11785;49.500;8.288;2023-03-09T07:16:03;4.47;;;1.13;;
23232;SDS011;11785;49.500;8.288;2023-03-09T07:18:29;4.68;;;1.08;;
23232;SDS011;11785;49.500;8.288;2023-03-09T07:20:57;2.38;;;0.82;;
23232;SDS011;11785;49.500;8.288;2023-03-09T07:23:25;1.85;;;0.80;;
23232;SDS011;11785;49.500;8.288;2023-03-09T07:25:51;5.80;;;0.93;;
23232;SDS011;11785;49.500;8.288;2023-03-09T07:28:17;2.97;;;1.15;;
23232;SDS011;11785;49.500;8.288;2023-03-09T07:30:42;2.60;;;1.20;;
23232;SDS011;11785;49.500;8.288;2023-03-09T07:33:08;2.15;;;0.80;;
23232;SDS011;11785;49.500;8.288;2023-03-09T07:35:37;2.67;;;0.88;;
23232;SDS011;11785;49.500;8.288;2023-03-09T07:38:03;4.45;;;1.38;;
23232;SDS011;11785;49.500;8.288;2023-03-09T07:40:29;3.75;;;0.75;;
23232;SDS011;11785;49.500;8.288;2023-03-09T07:42:55;3.35;;;0.70;;
23232;SDS011;11785;49.500;8.288;2023-03-09T07:45:21;1.45;;;0.60;;
23232;SDS011;11785;49.500;8.288;2023-03-09T07:47:47;2.28;;;0.52;;
23232;SDS011;11785;49.500;8.288;2023-03-09T07:50:13;1.00;;;0.60;;
23232;SDS011;11785;49.500;8.288;2023-03-09T07:52:38;1.27;;;0.93;;
23232;SDS011;11785;49.500;8.288;2023-03-09T07:55:04;4.20;;;2.13;;
23232;SDS011;11785;49.500;8.288;2023-03-09T07:57:33;5.90;;;2.60;;
23232;SDS011;11785;49.500;8.288;2023-03-09T07:59:59;2.17;;;1.10;;
23232;SDS011;11785;49.500;8.288;2023-03-09T08:02:25;3.53;;;2.00;;
23232;SDS011;11785;49.500;8.288;2023-03-09T08:04:50;2.75;;;1.40;;
23232;SDS011;11785;49.500;8.288;2023-03-09T08:07:16;2.53;;;1.15;;
23232;SDS011;11785;49.500;8.288;2023-03-09T08:09:42;5.35;;;1.58;;
23232;SDS011;11785;49.500;8.288;2023-03-09T08:12:08;2.72;;;0.90;;
23232;SDS011;11785;49.500;8.288;2023-03-09T08:14:34;3.63;;;1.52;;
23232;SDS011;11785;49.500;8.288;2023-03-09T08:16:59;3.83;;;1.30;;
23232;SDS011;11785;49.500;8.288;2023-03-09T08:19:27;2.90;;;1.30;;
23232;SDS011;11785;49.500;8.288;2023-03-09T08:21:52;4.13;;;1.05;;
23232;SDS011;11785;49.500;8.288;2023-03-09T08:24:18;3.13;;;0.90;;
23232;SDS011;11785;49.500;8.288;2023-03-09T08:26:43;2.63;;;1.20;;
23232;SDS011;11785;49.500;8.288;2023-03-09T08:29:09;5.65;;;1.45;;
23232;SDS011;11785;49.500;8.288;2023-03-09T08:31:35;3.63;;;1.23;;
23232;SDS011;11785;49.500;8.288;2023-03-09T08:34:01;5.13;;;1.38;;
23232;SDS011;11785;49.500;8.288;2023-03-09T08:36:28;10.40;;;2.75;;
23232;SDS011;11785;49.500;8.288;2023-03-09T08:38:54;6.93;;;1.67;;
23232;SDS011;11785;49.500;8.288;2023-03-09T08:41:20;5.05;;;1.90;;
23232;SDS011;11785;49.500;8.288;2023-03-09T08:43:46;5.90;;;1.50;;
23232;SDS011;11785;49.500;8.288;2023-03-09T08:46:12;6.38;;;1.42;;
23232;SDS011;11785;49.500;8.288;2023-03-09T08:48:38;9.70;;;1.70;;
23232;SDS011;11785;49.500;8.288;2023-03-09T08:51:04;6.40;;;1.33;;
23232;SDS011;11785;49.500;8.288;2023-03-09T08:53:32;6.43;;;1.75;;
23232;SDS011;11785;49.500;8.288;2023-03-09T08:56:02;12.63;;;2.47;;
23232;SDS011;11785;49.500;8.288;2023-03-09T08:58:33;5.72;;;1.50;;
23232;SDS011;11785;49.500;8.288;2023-03-09T09:00:59;9.02;;;1.50;;
23232;SDS011;11785;49.500;8.288;2023-03-09T09:03:27;10.35;;;2.88;;
23232;SDS011;11785;49.500;8.288;2023-03-09T09:05:53;9.80;;;1.52;;
23232;SDS011;11785;49.500;8.288;2023-03-09T09:08:19;7.32;;;1.80;;
23232;SDS011;11785;49.500;8.288;2023-03-09T09:10:44;6.95;;;1.85;;
23232;SDS011;11785;49.500;8.288;2023-03-09T09:13:10;9.05;;;1.63;;
23232;SDS011;11785;49.500;8.288;2023-03-09T09:15:36;11.38;;;1.92;;
23232;SDS011;11785;49.500;8.288;2023-03-09T09:18:04;6.57;;;1.30;;
23232;SDS011;11785;49.500;8.288;2023-03-09T09:20:31;10.18;;;1.70;;
23232;SDS011;11785;49.500;8.288;2023-03-09T09:22:56;12.35;;;2.05;;
23232;SDS011;11785;49.500;8.288;2023-03-09T09:25:22;10.10;;;1.40;;
23232;SDS011;11785;49.500;8.288;2023-03-09T09:27:50;9.15;;;1.50;;
23232;SDS011;11785;49.500;8.288;2023-03-09T09:30:17;9.35;;;2.00;;
23232;SDS011;11785;49.500;8.288;2023-03-09T09:32:43;11.80;;;2.78;;
23232;SDS011;11785;49.500;8.288;2023-03-09T09:35:10;9.20;;;1.60;;
23232;SDS011;11785;49.500;8.288;2023-03-09T09:37:36;10.82;;;1.70;;
23232;SDS011;11785;49.500;8.288;2023-03-09T09:40:03;7.22;;;1.60;;
23232;SDS011;11785;49.500;8.288;2023-03-09T09:42:32;10.98;;;1.55;;
23232;SDS011;11785;49.500;8.288;2023-03-09T09:45:02;7.75;;;1.40;;
23232;SDS011;11785;49.500;8.288;2023-03-09T09:47:30;8.55;;;1.67;;
23232;SDS011;11785;49.500;8.288;2023-03-09T09:49:59;13.68;;;1.90;;
23232;SDS011;11785;49.500;8.288;2023-03-09T09:55:34;9.13;;;2.17;;
23232;SDS011;11785;49.500;8.288;2023-03-09T09:58:13;4.50;;;1.90;;
23232;SDS011;11785;49.500;8.288;2023-03-09T10:00:54;6.72;;;1.60;;
23232;SDS011;11785;49.500;8.288;2023-03-09T10:03:23;11.80;;;2.45;;
23232;SDS011;11785;49.500;8.288;2023-03-09T10:11:30;6.95;;;1.88;;
23232;SDS011;11785;49.500;8.288;2023-03-09T10:14:07;5.38;;;1.60;;
23232;SDS011;11785;49.500;8.288;2023-03-09T10:16:56;9.77;;;1.83;;
23232;SDS011;11785;49.500;8.288;2023-03-09T10:19:31;7.38;;;1.70;;
23232;SDS011;11785;49.500;8.288;2023-03-09T10:21:59;9.35;;;1.80;;
23232;SDS011;11785;49.500;8.288;2023-03-09T10:30:07;8.43;;;1.83;;
23232;SDS011;11785;49.500;8.288;2023-03-09T10:37:46;10.63;;;2.50;;
23232;SDS011;11785;49.500;8.288;2023-03-09T10:40:16;7.72;;;2.67;;
23232;SDS011;11785;49.500;8.288;2023-03-09T10:42:44;19.58;;;6.00;;
23232;SDS011;11785;49.500;8.288;2023-03-09T10:50:15;8.18;;;1.60;;
23232;SDS011;11785;49.500;8.288;2023-03-09T10:52:41;4.78;;;1.35;;
23232;SDS011;11785;49.500;8.288;2023-03-09T10:57:57;5.32;;;1.55;;
23232;SDS011;11785;49.500;8.288;2023-03-09T11:00:24;5.05;;;1.92;;
23232;SDS011;11785;49.500;8.288;2023-03-09T11:02:54;3.97;;;2.25;;
23232;SDS011;11785;49.500;8.288;2023-03-09T11:05:22;5.53;;;1.40;;
23232;SDS011;11785;49.500;8.288;2023-03-09T11:07:54;6.90;;;1.40;;
23232;SDS011;11785;49.500;8.288;2023-03-09T11:10:23;3.55;;;1.40;;
23232;SDS011;11785;49.500;8.288;2023-03-09T11:12:51;5.78;;;1.50;;
23232;SDS011;11785;49.500;8.288;2023-03-09T11:17:44;7.03;;;1.70;;
23232;SDS011;11785;49.500;8.288;2023-03-09T11:22:54;2.42;;;0.88;;
23232;SDS011;11785;49.500;8.288;2023-03-09T11:28:39;3.60;;;1.35;;
23232;SDS011;11785;49.500;8.288;2023-03-09T11:33:39;4.18;;;1.10;;
23232;SDS011;11785;49.500;8.288;2023-03-09T11:36:05;7.32;;;1.30;;
23232;SDS011;11785;49.500;8.288;2023-03-09T11:38:33;5.28;;;1.25;;
23232;SDS011;11785;49.500;8.288;2023-03-09T11:41:03;3.35;;;1.30;;
23232;SDS011;11785;49.500;8.288;2023-03-09T11:43:37;7.07;;;1.25;;
23232;SDS011;11785;49.500;8.288;2023-03-09T11:46:06;4.65;;;1.35;;
23232;SDS011;11785;49.500;8.288;2023-03-09T11:48:58;4.88;;;1.13;;
23232;SDS011;11785;49.500;8.288;2023-03-09T11:51:41;5.68;;;1.23;;
23232;SDS011;11785;49.500;8.288;2023-03-09T11:57:08;4.43;;;1.20;;
23232;SDS011;11785;49.500;8.288;2023-03-09T11:59:41;9.07;;;1.60;;
23232;SDS011;11785;49.500;8.288;2023-03-09T12:05:18;5.95;;;1.20;;
23232;SDS011;11785;49.500;8.288;2023-03-09T12:10:32;4.00;;;1.10;;
23232;SDS011;11785;49.500;8.288;2023-03-09T12:16:08;6.75;;;1.15;;
23232;SDS011;11785;49.500;8.288;2023-03-09T12:19:05;3.92;;;0.95;;
23232;SDS011;11785;49.500;8.288;2023-03-09T12:21:35;3.60;;;1.38;;
23232;SDS011;11785;49.500;8.288;2023-03-09T12:24:23;7.90;;;1.50;;
23232;SDS011;11785;49.500;8.288;2023-03-09T12:29:55;7.18;;;1.40;;
23232;SDS011;11785;49.500;8.288;2023-03-09T12:32:34;19.48;;;5.25;;
23232;SDS011;11785;49.500;8.288;2023-03-09T12:35:09;14.50;;;4.03;;
23232;SDS011;11785;49.500;8.288;2023-03-09T12:42:41;12.45;;;3.20;;
23232;SDS011;11785;49.500;8.288;2023-03-09T12:55:20;2.35;;;0.75;;
23232;SDS011;11785;49.500;8.288;2023-03-09T12:57:49;1.67;;;0.60;;
23232;SDS011;11785;49.500;8.288;2023-03-09T13:00:23;3.17;;;0.73;;
23232;SDS011;11785;49.500;8.288;2023-03-09T13:03:03;2.00;;;0.75;;
23232;SDS011;11785;49.500;8.288;2023-03-09T13:05:45;1.70;;;0.52;;
23232;SDS011;11785;49.500;8.288;2023-03-09T13:08:35;1.90;;;0.65;;
23232;SDS011;11785;49.500;8.288;2023-03-09T13:13:49;3.85;;;1.10;;
23232;SDS011;11785;49.500;8.288;2023-03-09T13:29:48;5.70;;;0.95;;
23232;SDS011;11785;49.500;8.288;2023-03-09T13:32:32;2.35;;;1.02;;
23232;SDS011;11785;49.500;8.288;2023-03-09T13:35:01;3.53;;;1.25;;
23232;SDS011;11785;49.500;8.288;2023-03-09T13:37:37;4.93;;;1.00;;
23232;SDS011;11785;49.500;8.288;2023-03-09T13:40:06;5.88;;;0.82;;
23232;SDS011;11785;49.500;8.288;2023-03-09T13:42:47;4.13;;;1.13;;
23232;SDS011;11785;49.500;8.288;2023-03-09T13:45:18;7.05;;;1.10;;
23232;SDS011;11785;49.500;8.288;2023-03-09T13:47:59;2.15;;;0.90;;
23232;SDS011;11785;49.500;8.288;2023-03-09T13:50:30;4.20;;;1.13;;
23232;SDS011;11785;49.500;8.288;2023-03-09T13:55:26;4.28;;;1.00;;
23232;SDS011;11785;49.500;8.288;2023-03-09T13:57:52;4.00;;;1.65;;
23232;SDS011;11785;49.500;8.288;2023-03-09T14:00:20;4.45;;;1.20;;
23232;SDS011;11785;49.500;8.288;2023-03-09T14:02:54;6.03;;;1.75;;
23232;SDS011;11785;49.500;8.288;2023-03-09T14:05:20;4.93;;;1.10;;
23232;SDS011;11785;49.500;8.288;2023-03-09T14:10:19;2.63;;;1.33;;
23232;SDS011;11785;49.500;8.288;2023-03-09T14:15:19;6.93;;;1.55;;
23232;SDS011;11785;49.500;8.288;2023-03-09T14:17:45;4.57;;;1.33;;
23232;SDS011;11785;49.500;8.288;2023-03-09T14:20:16;7.10;;;1.48;;
23232;SDS011;11785;49.500;8.288;2023-03-09T14:22:42;7.60;;;1.65;;
23232;SDS011;11785;49.500;8.288;2023-03-09T14:25:25;8.38;;;2.08;;
23232;SDS011;11785;49.500;8.288;2023-03-09T14:27:56;5.03;;;1.40;;
23232;SDS011;11785;49.500;8.288;2023-03-09T14:30:34;4.45;;;1.35;;
23232;SDS011;11785;49.500;8.288;2023-03-09T14:33:20;5.47;;;1.40;;
23232;SDS011;11785;49.500;8.288;2023-03-09T14:36:07;4.07;;;1.23;;
23232;SDS011;11785;49.500;8.288;2023-03-09T14:38:49;9.10;;;2.05;;
23232;SDS011;11785;49.500;8.288;2023-03-09T14:41:27;5.20;;;1.50;;
23232;SDS011;11785;49.500;8.288;2023-03-09T14:43:54;6.15;;;1.45;;
23232;SDS011;11785;49.500;8.288;2023-03-09T14:46:21;6.03;;;1.38;;
23232;SDS011;11785;49.500;8.288;2023-03-09T14:48:53;9.30;;;1.70;;
23232;SDS011;11785;49.500;8.288;2023-03-09T14:51:21;4.38;;;1.00;;
23232;SDS011;11785;49.500;8.288;2023-03-09T14:53:53;5.80;;;1.50;;
23232;SDS011;11785;49.500;8.288;2023-03-09T14:56:34;6.97;;;1.52;;
23232;SDS011;11785;49.500;8.288;2023-03-09T14:59:21;6.68;;;1.73;;
23232;SDS011;11785;49.500;8.288;2023-03-09T15:01:48;4.70;;;1.40;;
23232;SDS011;11785;49.500;8.288;2023-03-09T15:04:19;7.20;;;2.00;;
23232;SDS011;11785;49.500;8.288;2023-03-09T15:06:46;5.75;;;1.92;;
23232;SDS011;11785;49.500;8.288;2023-03-09T15:09:13;8.13;;;1.60;;
23232;SDS011;11785;49.500;8.288;2023-03-09T15:11:39;7.82;;;1.98;;
23232;SDS011;11785;49.500;8.288;2023-03-09T15:14:07;5.10;;;1.48;;
23232;SDS011;11785;49.500;8.288;2023-03-09T15:16:48;7.50;;;1.98;;
23232;SDS011;11785;49.500;8.288;2023-03-09T15:19:18;3.58;;;1.15;;
23232;SDS011;11785;49.500;8.288;2023-03-09T15:21:45;6.97;;;2.00;;
23232;SDS011;11785;49.500;8.288;2023-03-09T15:24:12;11.25;;;2.28;;
23232;SDS011;11785;49.500;8.288;2023-03-09T15:26:38;11.10;;;3.58;;
23232;SDS011;11785;49.500;8.288;2023-03-09T15:29:04;9.73;;;2.67;;
23232;SDS011;11785;49.500;8.288;2023-03-09T15:31:30;7.95;;;1.75;;
23232;SDS011;11785;49.500;8.288;2023-03-09T15:33:56;6.85;;;1.55;;
23232;SDS011;11785;49.500;8.288;2023-03-09T15:36:22;6.25;;;1.70;;
23232;SDS011;11785;49.500;8.288;2023-03-09T15:38:48;6.60;;;1.88;;
23232;SDS011;11785;49.500;8.288;2023-03-09T15:41:14;13.07;;;2.53;;
23232;SDS011;11785;49.500;8.288;2023-03-09T15:43:40;9.18;;;1.65;;
23232;SDS011;11785;49.500;8.288;2023-03-09T15:46:06;8.10;;;1.45;;
23232;SDS011;11785;49.500;8.288;2023-03-09T15:48:32;11.20;;;1.90;;
23232;SDS011;11785;49.500;8.288;2023-03-09T15:50:59;10.02;;;2.08;;
23232;SDS011;11785;49.500;8.288;2023-03-09T15:53:24;11.02;;;1.95;;
23232;SDS011;11785;49.500;8.288;2023-03-09T15:56:03;14.27;;;2.20;;
23232;SDS011;11785;49.500;8.288;2023-03-09T15:58:31;9.50;;;1.83;;
23232;SDS011;11785;49.500;8.288;2023-03-09T16:00:58;10.80;;;2.70;;
23232;SDS011;11785;49.500;8.288;2023-03-09T16:03:28;11.85;;;2.50;;
23232;SDS011;11785;49.500;8.288;2023-03-09T16:05:55;8.65;;;1.92;;
23232;SDS011;11785;49.500;8.288;2023-03-09T16:08:21;10.45;;;2.90;;
23232;SDS011;11785;49.500;8.288;2023-03-09T16:10:47;14.73;;;2.38;;
23232;SDS011;11785;49.500;8.288;2023-03-09T16:13:14;8.50;;;2.05;;
23232;SDS011;11785;49.500;8.288;2023-03-09T16:15:40;14.70;;;2.17;;
23232;SDS011;11785;49.500;8.288;2023-03-09T16:18:05;7.70;;;1.75;;
23232;SDS011;11785;49.500;8.288;2023-03-09T16:20:32;10.98;;;1.98;;
23232;SDS011;11785;49.500;8.288;2023-03-09T16:22:58;10.15;;;2.30;;
23232;SDS011;11785;49.500;8.288;2023-03-09T16:25:24;11.55;;;2.45;;
23232;SDS011;11785;49.500;8.288;2023-03-09T16:27:50;8.65;;;2.03;;
23232;SDS011;11785;49.500;8.288;2023-03-09T16:30:15;11.13;;;2.45;;
23232;SDS011;11785;49.500;8.288;2023-03-09T16:32:42;9.77;;;2.30;;
23232;SDS011;11785;49.500;8.288;2023-03-09T16:35:09;11.65;;;3.03;;
23232;SDS011;11785;49.500;8.288;2023-03-09T16:37:35;10.25;;;3.10;;
23232;SDS011;11785;49.500;8.288;2023-03-09T16:40:02;8.77;;;1.95;;
23232;SDS011;11785;49.500;8.288;2023-03-09T16:42:28;10.25;;;2.17;;
23232;SDS011;11785;49.500;8.288;2023-03-09T16:44:55;16.88;;;2.53;;